Terminal Aerodrome Forecast
Issued by NWS

Home | Current Version | Previous Version | Text Only | Print | Product List | Glossary On
Versions: 1 2 3 4 5 6 7 8 9 10 11 12 13 14 15 16 17 18 19 20 21 22 23 24 25
063
FTUS41 KOKX 100526
TAFGON
TAF
KGON 100526Z 1006/1106 VRB02KT P6SM SCT050 BKN100
     FM100900 VRB02KT 6SM -SN FEW020 OVC030
      TEMPO 1009/1013 4SM -SN BKN015 OVC025
     FM101700 28008KT P6SM BKN050=

USA.gov is the U.S. government's official web portal to all federal, state and local government web resources and services.